createdAt,value
2017-11-30T00:01:21.253Z,10.77
2017-11-30T00:03:47.406Z,9.53
2017-11-30T00:06:13.530Z,11.43
2017-11-30T00:08:39.646Z,10.87
2017-11-30T00:11:05.778Z,9.87
2017-11-30T00:13:31.905Z,11.17
2017-11-30T00:15:57.974Z,9.20
2017-11-30T00:18:24.105Z,10.10
2017-11-30T00:20:50.237Z,10.67
2017-11-30T00:23:16.393Z,9.37
2017-11-30T00:25:42.510Z,10.40
2017-11-30T00:28:08.622Z,11.67
2017-11-30T00:30:34.698Z,11.80
2017-11-30T00:33:00.861Z,12.30
2017-11-30T00:35:27.009Z,11.30
2017-11-30T00:37:53.197Z,10.67
2017-11-30T00:40:19.315Z,10.20
2017-11-30T00:42:57.581Z,10.90
2017-11-30T00:45:24.009Z,9.97
2017-11-30T00:47:50.102Z,13.00
2017-11-30T00:50:16.245Z,10.77
2017-11-30T00:52:42.357Z,10.70
2017-11-30T00:55:08.511Z,11.03
2017-11-30T00:57:34.613Z,10.20
2017-11-30T01:00:00.778Z,10.97
2017-11-30T01:02:26.899Z,13.50
2017-11-30T01:04:53.027Z,12.53
2017-11-30T01:07:19.192Z,10.50
2017-11-30T01:09:45.360Z,11.30
2017-11-30T01:12:11.462Z,10.30
2017-11-30T01:14:37.598Z,9.60
2017-11-30T01:17:03.733Z,10.30
2017-11-30T01:19:29.834Z,8.83
2017-11-30T01:21:55.970Z,9.77
2017-11-30T01:24:22.073Z,9.13
2017-11-30T01:26:48.193Z,10.00
2017-11-30T01:29:14.285Z,12.20
2017-11-30T01:31:40.386Z,9.63
2017-11-30T01:34:06.566Z,7.93
2017-11-30T01:36:32.701Z,9.57
2017-11-30T01:38:58.823Z,7.40
2017-11-30T01:41:24.929Z,9.73
2017-11-30T01:43:51.161Z,8.90
2017-11-30T01:46:17.280Z,8.00
2017-11-30T01:48:43.357Z,9.30
2017-11-30T01:51:09.457Z,9.10
2017-11-30T01:53:35.582Z,9.40
2017-11-30T01:56:01.686Z,7.83
2017-11-30T01:58:27.838Z,8.57
2017-11-30T02:00:54.003Z,10.20
2017-11-30T02:03:20.106Z,8.80
2017-11-30T02:05:46.237Z,8.80
2017-11-30T02:08:12.437Z,9.30
2017-11-30T02:10:38.597Z,10.00
2017-11-30T02:13:04.713Z,9.60
2017-11-30T02:15:30.929Z,11.37
2017-11-30T02:17:57.033Z,8.80
2017-11-30T02:20:23.155Z,9.40
2017-11-30T02:22:49.293Z,9.90
2017-11-30T02:25:15.381Z,10.33
2017-11-30T02:27:41.480Z,10.30
2017-11-30T02:30:07.555Z,11.27
2017-11-30T02:32:33.631Z,11.10
2017-11-30T02:34:59.714Z,10.20
2017-11-30T02:37:25.794Z,11.07
2017-11-30T02:39:51.989Z,10.97
2017-11-30T02:42:18.061Z,9.30
2017-11-30T02:44:44.132Z,11.60
2017-11-30T02:47:10.218Z,11.43
2017-11-30T02:49:36.442Z,11.00
2017-11-30T02:52:02.504Z,12.10
2017-11-30T02:54:28.572Z,11.53
2017-11-30T02:56:54.690Z,10.53
2017-11-30T02:59:20.737Z,11.50
2017-11-30T03:01:46.851Z,10.27
2017-11-30T03:04:12.945Z,12.90
2017-11-30T03:06:39.417Z,10.70
2017-11-30T03:09:05.947Z,11.10
2017-11-30T03:11:32.068Z,9.93
2017-11-30T03:13:58.160Z,11.50
2017-11-30T03:16:24.299Z,10.43
2017-11-30T03:18:50.366Z,12.03
2017-11-30T03:21:16.509Z,11.43
2017-11-30T03:23:42.631Z,12.70
2017-11-30T03:26:08.793Z,12.20
2017-11-30T03:28:35.038Z,11.50
2017-11-30T03:31:01.143Z,11.70
2017-11-30T03:33:27.249Z,12.40
2017-11-30T03:35:53.362Z,12.70
2017-11-30T03:38:19.466Z,12.40
2017-11-30T03:40:45.602Z,14.17
2017-11-30T03:43:11.743Z,13.50
2017-11-30T03:45:37.885Z,13.93
2017-11-30T03:48:04.031Z,13.83
2017-11-30T03:50:30.549Z,17.20
2017-11-30T03:52:56.658Z,20.97
2017-11-30T03:55:22.813Z,15.70
2017-11-30T03:57:48.906Z,13.77
2017-11-30T04:00:15.057Z,15.20
2017-11-30T04:02:41.171Z,15.83
2017-11-30T04:05:07.342Z,16.13
2017-11-30T04:07:33.482Z,15.57
2017-11-30T04:09:59.808Z,17.13
2017-11-30T04:12:25.937Z,13.90
2017-11-30T04:14:52.085Z,15.30
2017-11-30T04:17:18.209Z,14.80
2017-11-30T04:19:44.297Z,13.03
2017-11-30T04:22:10.412Z,12.17
2017-11-30T04:24:36.447Z,13.10
2017-11-30T04:27:02.557Z,12.20
2017-11-30T04:29:28.738Z,12.07
2017-11-30T04:31:54.846Z,11.40
2017-11-30T04:34:20.946Z,10.70
2017-11-30T04:36:47.074Z,11.20
2017-11-30T04:39:13.218Z,13.27
2017-11-30T04:41:39.336Z,11.80
2017-11-30T04:44:05.505Z,11.50
2017-11-30T04:46:31.654Z,13.23
2017-11-30T04:48:57.737Z,10.90
2017-11-30T04:51:23.926Z,13.90
2017-11-30T04:53:50.038Z,12.07
2017-11-30T04:56:16.237Z,14.43
2017-11-30T04:58:42.357Z,12.20
2017-11-30T05:01:08.477Z,13.67
2017-11-30T05:03:34.693Z,12.23
2017-11-30T05:06:00.778Z,13.60
2017-11-30T05:08:26.852Z,14.17
2017-11-30T05:10:52.962Z,14.57
2017-11-30T05:13:19.182Z,13.97
2017-11-30T05:15:45.374Z,15.27
2017-11-30T05:18:11.501Z,15.80
2017-11-30T05:20:37.645Z,15.90
2017-11-30T05:23:03.738Z,15.50
2017-11-30T05:25:29.854Z,17.70
2017-11-30T05:27:55.907Z,15.77
2017-11-30T05:30:22.122Z,17.90
2017-11-30T05:32:48.246Z,20.73
2017-11-30T05:35:14.394Z,18.37
2017-11-30T05:37:40.513Z,16.13
2017-11-30T05:40:07.333Z,15.77
2017-11-30T05:42:33.508Z,15.47
2017-11-30T05:44:59.640Z,15.17
2017-11-30T05:47:25.793Z,16.73
2017-11-30T05:49:51.946Z,16.50
2017-11-30T05:52:18.064Z,16.67
2017-11-30T05:54:44.165Z,15.67
2017-11-30T05:57:10.288Z,16.33
2017-11-30T05:59:36.409Z,15.47
2017-11-30T06:02:02.573Z,19.00
2017-11-30T06:04:28.682Z,19.53
2017-11-30T06:06:54.769Z,21.37
2017-11-30T06:09:20.908Z,18.07
2017-11-30T06:11:47.149Z,15.00
2017-11-30T06:14:13.339Z,17.63
2017-11-30T06:16:39.430Z,17.03
2017-11-30T06:19:05.571Z,17.27
2017-11-30T06:21:31.639Z,18.13
2017-11-30T06:23:57.793Z,16.67
2017-11-30T06:26:23.938Z,16.67
2017-11-30T06:28:50.089Z,18.87
2017-11-30T06:31:16.245Z,17.33
2017-11-30T06:33:42.402Z,14.20
2017-11-30T06:36:08.579Z,15.90
2017-11-30T06:38:34.743Z,15.87
2017-11-30T06:41:00.917Z,13.43
2017-11-30T06:43:27.043Z,16.83
2017-11-30T06:45:53.202Z,19.20
2017-11-30T06:48:19.394Z,17.00
2017-11-30T06:50:45.527Z,16.73
2017-11-30T06:53:11.698Z,17.40
2017-11-30T06:55:37.857Z,16.63
2017-11-30T06:58:04.013Z,16.53
2017-11-30T07:00:30.154Z,17.63
2017-11-30T07:02:56.309Z,16.93
2017-11-30T07:05:22.459Z,19.77
2017-11-30T07:07:48.570Z,20.57
2017-11-30T07:10:14.754Z,20.30
2017-11-30T07:12:40.861Z,23.97
2017-11-30T07:15:06.963Z,22.80
2017-11-30T07:17:33.197Z,23.20
2017-11-30T07:19:59.321Z,25.90
2017-11-30T07:22:25.506Z,26.80
2017-11-30T07:24:51.705Z,28.10
2017-11-30T07:27:17.831Z,23.67
2017-11-30T07:29:44.054Z,22.40
2017-11-30T07:32:10.164Z,20.83
2017-11-30T07:34:36.312Z,16.93
2017-11-30T07:37:02.414Z,17.57
2017-11-30T07:39:28.561Z,19.60
2017-11-30T07:41:54.690Z,19.87
2017-11-30T07:44:20.846Z,19.00
2017-11-30T07:46:47.010Z,19.87
2017-11-30T07:49:13.133Z,19.07
2017-11-30T07:51:39.258Z,17.23
2017-11-30T07:54:05.383Z,18.00
2017-11-30T07:56:31.486Z,20.73
2017-11-30T07:58:57.609Z,17.77
2017-11-30T08:01:23.678Z,18.33
2017-11-30T08:03:49.829Z,16.13
2017-11-30T08:06:15.958Z,16.13
2017-11-30T08:08:42.064Z,16.40
2017-11-30T08:11:08.150Z,16.50
2017-11-30T08:13:34.275Z,16.30
2017-11-30T08:16:00.392Z,16.43
2017-11-30T08:18:26.503Z,19.07
2017-11-30T08:20:52.622Z,19.13
2017-11-30T08:23:18.789Z,17.17
2017-11-30T08:25:44.953Z,15.83
2017-11-30T08:28:11.134Z,14.13
2017-11-30T08:30:37.249Z,16.27
2017-11-30T08:33:03.366Z,14.93
2017-11-30T08:35:29.478Z,16.53
2017-11-30T08:37:55.626Z,14.20
2017-11-30T08:40:21.778Z,13.30
2017-11-30T08:42:47.934Z,13.93
2017-11-30T08:45:14.045Z,13.30
2017-11-30T08:47:40.195Z,15.13
2017-11-30T08:50:06.369Z,13.37
2017-11-30T08:52:32.433Z,12.17
2017-11-30T08:54:58.613Z,12.60
2017-11-30T08:57:24.740Z,15.10
2017-11-30T08:59:50.884Z,14.40
2017-11-30T09:02:17.090Z,14.37
2017-11-30T09:04:43.179Z,14.20
2017-11-30T09:07:09.303Z,15.30
2017-11-30T09:09:35.462Z,15.43
2017-11-30T09:12:01.602Z,15.67
2017-11-30T09:14:27.662Z,13.83
2017-11-30T09:16:53.813Z,15.97
2017-11-30T09:19:19.935Z,13.53
2017-11-30T09:21:46.067Z,16.07
2017-11-30T09:24:12.188Z,14.80
2017-11-30T09:26:38.291Z,16.20
2017-11-30T09:29:04.405Z,16.07
2017-11-30T09:31:30.518Z,15.80
2017-11-30T09:33:56.685Z,14.20
2017-11-30T09:36:23.854Z,16.87
2017-11-30T09:38:49.999Z,16.83
2017-11-30T09:41:16.170Z,14.60
2017-11-30T09:43:42.308Z,16.07
2017-11-30T09:46:08.667Z,12.43
2017-11-30T09:48:34.713Z,16.23
2017-11-30T09:51:00.854Z,15.23
2017-11-30T09:53:27.030Z,15.10
2017-11-30T09:55:53.141Z,15.33
2017-11-30T09:58:19.286Z,13.80
2017-11-30T10:00:45.466Z,13.63
2017-11-30T10:03:11.597Z,12.37
2017-11-30T10:05:37.710Z,11.70
2017-11-30T10:08:03.797Z,12.77
2017-11-30T10:10:29.993Z,11.93
2017-11-30T10:12:56.068Z,11.20
2017-11-30T10:15:22.206Z,12.37
2017-11-30T10:17:48.337Z,13.10
2017-11-30T10:20:14.461Z,13.47
2017-11-30T10:22:40.506Z,12.70
2017-11-30T10:25:06.650Z,10.30
2017-11-30T10:27:32.777Z,10.63
2017-11-30T10:29:58.865Z,12.77
2017-11-30T10:32:25.049Z,10.70
2017-11-30T10:34:51.180Z,11.80
2017-11-30T10:37:17.354Z,10.70
2017-11-30T10:39:43.465Z,12.30
2017-11-30T10:42:09.675Z,11.63
2017-11-30T10:44:35.846Z,10.33
2017-11-30T10:47:01.973Z,11.40
2017-11-30T10:49:28.149Z,10.07
2017-11-30T10:51:54.239Z,11.70
2017-11-30T10:54:20.341Z,9.53
2017-11-30T10:56:46.432Z,10.40
2017-11-30T10:59:12.557Z,11.27
2017-11-30T11:01:38.783Z,10.93
2017-11-30T11:04:04.946Z,10.17
2017-11-30T11:06:31.065Z,10.70
2017-11-30T11:08:57.217Z,11.47
2017-11-30T11:11:23.293Z,10.93
2017-11-30T11:13:49.412Z,11.43
2017-11-30T11:16:15.538Z,12.73
2017-11-30T11:18:41.638Z,12.10
2017-11-30T11:21:07.767Z,11.80
2017-11-30T11:23:33.873Z,11.10
2017-11-30T11:26:00.048Z,13.13
2017-11-30T11:28:26.151Z,10.67
2017-11-30T11:30:52.274Z,10.80
2017-11-30T11:33:18.393Z,10.20
2017-11-30T11:35:44.498Z,11.60
2017-11-30T11:38:10.642Z,12.27
2017-11-30T11:40:36.698Z,10.70
2017-11-30T11:43:02.826Z,15.37
2017-11-30T11:45:28.958Z,12.20
2017-11-30T11:47:55.114Z,11.47
2017-11-30T11:50:21.266Z,14.10
2017-11-30T11:52:47.372Z,12.23
2017-11-30T11:55:13.540Z,13.70
2017-11-30T11:57:39.646Z,15.30
2017-11-30T12:00:05.814Z,14.30
2017-11-30T12:02:31.966Z,14.40
2017-11-30T12:04:58.104Z,14.90
2017-11-30T12:07:24.250Z,16.10
2017-11-30T12:09:50.346Z,15.10
2017-11-30T12:12:16.473Z,14.83
2017-11-30T12:14:42.580Z,15.43
2017-11-30T12:17:08.670Z,16.10
2017-11-30T12:19:34.783Z,17.10
2017-11-30T12:22:00.915Z,16.53
2017-11-30T12:24:27.072Z,16.07
2017-11-30T12:26:53.164Z,17.10
2017-11-30T12:29:19.310Z,15.30
2017-11-30T12:31:45.534Z,17.17
2017-11-30T12:34:11.605Z,16.67
2017-11-30T12:36:37.753Z,16.90
2017-11-30T12:39:03.806Z,16.90
2017-11-30T12:41:29.924Z,16.10
2017-11-30T12:43:56.062Z,17.77
2017-11-30T12:46:22.172Z,16.63
2017-11-30T12:48:48.316Z,18.17
2017-11-30T12:51:14.773Z,18.70
2017-11-30T12:53:40.950Z,18.80
2017-11-30T12:56:07.086Z,17.40
2017-11-30T12:58:33.197Z,16.47
2017-11-30T13:00:59.319Z,16.37
2017-11-30T13:03:25.485Z,15.27
2017-11-30T13:05:51.563Z,15.33
2017-11-30T13:08:17.707Z,15.13
2017-11-30T13:10:43.808Z,15.97
2017-11-30T13:13:09.971Z,15.07
2017-11-30T13:15:36.076Z,13.83
2017-11-30T13:18:02.240Z,13.80
2017-11-30T13:20:28.309Z,13.07
2017-11-30T13:22:54.452Z,15.10
2017-11-30T13:25:20.613Z,14.27
2017-11-30T13:27:46.739Z,13.87
2017-11-30T13:30:12.892Z,9.90
2017-11-30T13:32:39.072Z,7.93
2017-11-30T13:35:05.204Z,10.80
2017-11-30T13:37:31.371Z,12.60
2017-11-30T13:39:57.524Z,8.60
2017-11-30T13:42:23.604Z,7.20
2017-11-30T13:44:49.687Z,4.50
2017-11-30T13:47:15.865Z,5.87
2017-11-30T13:49:41.952Z,3.80
2017-11-30T13:52:08.129Z,4.17
2017-11-30T13:54:34.191Z,4.03
2017-11-30T13:57:00.296Z,5.27
2017-11-30T13:59:26.386Z,5.00
2017-11-30T14:01:52.484Z,4.70
2017-11-30T14:04:18.620Z,4.67
2017-11-30T14:06:44.748Z,5.67
2017-11-30T14:09:10.867Z,5.17
2017-11-30T14:11:37.106Z,4.50
2017-11-30T14:14:03.289Z,5.93
2017-11-30T14:16:29.428Z,6.20
2017-11-30T14:18:55.552Z,8.40
2017-11-30T14:21:22.121Z,7.80
2017-11-30T14:23:48.268Z,7.57
2017-11-30T14:26:14.352Z,7.07
2017-11-30T14:28:40.465Z,8.10
2017-11-30T14:31:06.559Z,9.33
2017-11-30T14:33:32.628Z,9.63
2017-11-30T14:35:58.712Z,8.97
2017-11-30T14:38:24.833Z,10.80
2017-11-30T14:40:51.272Z,9.80
2017-11-30T14:43:17.457Z,7.83
2017-11-30T14:45:43.564Z,7.90
2017-11-30T14:48:09.651Z,8.07
2017-11-30T14:50:35.760Z,6.83
2017-11-30T14:53:01.881Z,5.80
2017-11-30T14:55:28.036Z,6.60
2017-11-30T14:57:54.152Z,6.90
2017-11-30T15:00:20.267Z,5.90
2017-11-30T15:02:46.372Z,7.93
2017-11-30T15:05:12.538Z,6.13
2017-11-30T15:07:38.728Z,9.40
2017-11-30T15:10:04.849Z,7.07
2017-11-30T15:12:30.959Z,9.30
2017-11-30T15:14:57.120Z,8.20
2017-11-30T15:17:23.247Z,9.03
2017-11-30T15:19:49.389Z,7.73
2017-11-30T15:22:15.496Z,8.70
2017-11-30T15:24:41.603Z,8.73
2017-11-30T15:27:08.521Z,8.60
2017-11-30T15:29:34.599Z,9.70
2017-11-30T15:32:00.769Z,7.40
2017-11-30T15:34:26.920Z,8.30
2017-11-30T15:36:52.996Z,9.20
2017-11-30T15:39:19.127Z,7.93
2017-11-30T15:41:45.346Z,9.30
2017-11-30T15:44:11.526Z,7.67
2017-11-30T15:46:37.638Z,6.80
2017-11-30T15:49:03.772Z,8.43
2017-11-30T15:51:29.827Z,9.63
2017-11-30T15:53:55.970Z,8.53
2017-11-30T15:56:22.219Z,9.13
2017-11-30T15:58:48.407Z,7.00
2017-11-30T16:01:14.587Z,8.07
2017-11-30T16:03:40.748Z,8.10
2017-11-30T16:06:06.835Z,8.73
2017-11-30T16:08:32.978Z,8.03
2017-11-30T16:10:59.136Z,9.30
2017-11-30T16:13:25.818Z,8.70
2017-11-30T16:15:51.949Z,10.77
2017-11-30T16:18:18.040Z,11.97
2017-11-30T16:20:44.250Z,10.67
2017-11-30T16:23:10.406Z,12.60
2017-11-30T16:25:36.533Z,11.83
2017-11-30T16:28:02.668Z,11.60
2017-11-30T16:30:28.799Z,11.90
2017-11-30T16:32:54.983Z,14.90
2017-11-30T16:35:21.137Z,14.90
2017-11-30T16:37:47.311Z,12.40
2017-11-30T16:40:13.452Z,11.97
2017-11-30T16:42:39.709Z,11.07
2017-11-30T16:45:05.856Z,16.37
2017-11-30T16:47:31.978Z,17.80
2017-11-30T16:49:58.234Z,19.30
2017-11-30T16:52:24.432Z,16.90
2017-11-30T16:54:50.564Z,16.40
2017-11-30T16:57:16.775Z,13.93
2017-11-30T16:59:42.952Z,13.70
2017-11-30T17:02:09.089Z,14.73
2017-11-30T17:04:35.216Z,10.73
2017-11-30T17:07:01.351Z,9.93
2017-11-30T17:09:27.486Z,22.23
2017-11-30T17:11:53.581Z,12.63
2017-11-30T17:14:19.782Z,11.13
2017-11-30T17:16:45.910Z,19.70
2017-11-30T17:19:12.112Z,22.87
2017-11-30T17:21:38.235Z,18.80
2017-11-30T17:24:04.305Z,11.70
2017-11-30T17:26:30.433Z,12.30
2017-11-30T17:28:56.657Z,22.30
2017-11-30T17:31:22.761Z,20.33
2017-11-30T17:33:48.920Z,18.70
2017-11-30T17:36:15.055Z,19.60
2017-11-30T17:38:41.255Z,12.90
2017-11-30T17:41:07.401Z,12.43
2017-11-30T17:43:33.577Z,11.10
2017-11-30T17:45:59.817Z,11.67
2017-11-30T17:48:25.940Z,12.13
2017-11-30T17:50:52.052Z,14.40
2017-11-30T17:53:18.212Z,15.33
2017-11-30T17:55:44.395Z,11.97
2017-11-30T17:58:10.467Z,16.20
2017-11-30T18:00:36.620Z,18.20
2017-11-30T18:03:02.803Z,16.53
2017-11-30T18:05:28.924Z,14.23
2017-11-30T18:07:55.313Z,11.93
2017-11-30T18:10:21.456Z,10.77
2017-11-30T18:12:47.583Z,10.70
2017-11-30T18:15:13.692Z,12.97
2017-11-30T18:17:39.812Z,13.67
2017-11-30T18:20:05.965Z,13.77
2017-11-30T18:22:32.177Z,18.53
2017-11-30T18:24:58.397Z,15.00
2017-11-30T18:27:24.494Z,12.93
2017-11-30T18:29:50.662Z,14.20
2017-11-30T18:32:16.762Z,15.77
2017-11-30T18:34:42.936Z,18.90
2017-11-30T18:37:09.062Z,18.47
2017-11-30T18:39:35.248Z,18.57
2017-11-30T18:42:01.433Z,12.20
2017-11-30T18:44:27.572Z,12.40
2017-11-30T18:46:53.720Z,11.20
2017-11-30T18:49:19.953Z,13.70
2017-11-30T18:51:46.053Z,13.10
2017-11-30T18:54:12.220Z,13.80
2017-11-30T18:56:38.407Z,15.23
2017-11-30T18:59:04.549Z,16.83
2017-11-30T19:01:30.655Z,17.07
2017-11-30T19:03:56.798Z,17.60
2017-11-30T19:06:22.892Z,17.17
2017-11-30T19:08:49.128Z,15.70
2017-11-30T19:11:15.473Z,38.00
2017-11-30T19:13:41.661Z,20.47
2017-11-30T19:16:07.805Z,15.77
2017-11-30T19:18:33.947Z,12.83
2017-11-30T19:21:00.155Z,13.10
2017-11-30T19:23:26.311Z,14.17
2017-11-30T19:25:52.492Z,14.00
2017-11-30T19:28:18.606Z,14.83
2017-11-30T19:30:44.641Z,15.63
2017-11-30T19:33:10.755Z,14.77
2017-11-30T19:35:36.984Z,13.60
2017-11-30T19:38:03.061Z,15.10
2017-11-30T19:40:29.390Z,16.43
2017-11-30T19:42:55.644Z,16.57
2017-11-30T19:45:21.953Z,17.40
2017-11-30T19:47:48.209Z,16.27
2017-11-30T19:50:14.685Z,16.53
2017-11-30T19:52:41.010Z,14.73
2017-11-30T19:55:07.235Z,17.30
2017-11-30T19:57:33.516Z,15.20
2017-11-30T19:59:59.872Z,18.50
2017-11-30T20:02:26.183Z,17.23
2017-11-30T20:04:52.573Z,17.57
2017-11-30T20:07:19.766Z,18.30
2017-11-30T20:09:46.307Z,18.03
2017-11-30T20:12:12.653Z,15.77
2017-11-30T20:14:39.038Z,16.83
2017-11-30T20:17:05.389Z,16.13
2017-11-30T20:19:31.684Z,18.80
2017-11-30T20:21:58.715Z,19.50
2017-11-30T20:24:24.996Z,16.40
2017-11-30T20:26:51.883Z,16.73
2017-11-30T20:29:19.197Z,19.10
2017-11-30T20:31:45.503Z,16.60
2017-11-30T20:34:11.749Z,14.43
2017-11-30T20:36:38.004Z,18.80
2017-11-30T20:39:04.368Z,19.50
2017-11-30T20:41:30.761Z,18.77
2017-11-30T20:43:57.934Z,16.33
2017-11-30T20:46:24.198Z,18.60
2017-11-30T20:48:50.411Z,16.40
2017-11-30T20:51:16.652Z,19.20
2017-11-30T20:53:42.876Z,17.80
2017-11-30T20:56:09.502Z,19.57
2017-11-30T20:58:35.864Z,19.20
2017-11-30T21:01:02.114Z,18.50
2017-11-30T21:03:28.346Z,18.90
2017-11-30T21:05:54.518Z,19.30
2017-11-30T21:08:20.695Z,18.17
2017-11-30T21:10:46.885Z,17.50
2017-11-30T21:13:13.057Z,15.73
2017-11-30T21:15:40.365Z,19.20
2017-11-30T21:18:06.450Z,21.17
2017-11-30T21:20:32.588Z,26.23
2017-11-30T21:22:58.734Z,17.13
2017-11-30T21:25:24.833Z,18.40
2017-11-30T21:27:51.376Z,17.23
2017-11-30T21:30:17.577Z,17.03
2017-11-30T21:32:43.720Z,18.90
2017-11-30T21:35:09.839Z,19.63
2017-11-30T21:37:36.088Z,18.43
2017-11-30T21:40:02.325Z,20.13
2017-11-30T21:42:28.467Z,19.37
2017-11-30T21:44:54.537Z,18.47
2017-11-30T21:47:20.687Z,19.97
2017-11-30T21:49:46.746Z,21.47
2017-11-30T21:52:12.893Z,21.10
2017-11-30T21:54:38.997Z,20.63
2017-11-30T21:57:05.128Z,20.80
2017-11-30T21:59:31.272Z,20.57
2017-11-30T22:01:57.385Z,18.93
2017-11-30T22:04:23.460Z,20.10
2017-11-30T22:06:49.645Z,21.23
2017-11-30T22:09:15.741Z,21.00
2017-11-30T22:11:41.879Z,20.50
2017-11-30T22:14:08.020Z,21.83
2017-11-30T22:16:34.100Z,23.70
2017-11-30T22:19:00.648Z,27.67
2017-11-30T22:21:26.772Z,23.20
2017-11-30T22:23:52.852Z,26.10
2017-11-30T22:26:18.986Z,25.50
2017-11-30T22:28:45.098Z,23.60
2017-11-30T22:31:11.217Z,25.03
2017-11-30T22:33:37.283Z,26.73
2017-11-30T22:36:03.408Z,26.40
2017-11-30T22:38:29.540Z,21.67
2017-11-30T22:40:55.676Z,24.30
2017-11-30T22:43:21.864Z,21.37
2017-11-30T22:45:47.988Z,22.97
2017-11-30T22:48:14.067Z,23.77
2017-11-30T22:50:40.229Z,21.70
2017-11-30T22:53:06.370Z,22.60
2017-11-30T22:55:32.518Z,24.07
2017-11-30T22:57:58.673Z,22.00
2017-11-30T23:00:24.720Z,21.70
2017-11-30T23:02:50.818Z,22.43
2017-11-30T23:05:16.900Z,22.97
2017-11-30T23:07:43.033Z,23.03
2017-11-30T23:10:09.148Z,22.10
2017-11-30T23:12:35.261Z,22.40
2017-11-30T23:15:01.401Z,21.30
2017-11-30T23:17:27.531Z,20.67
2017-11-30T23:19:53.682Z,22.63
2017-11-30T23:22:19.816Z,21.53
2017-11-30T23:24:46.085Z,22.77
2017-11-30T23:27:12.213Z,21.00
2017-11-30T23:29:38.312Z,23.53
2017-11-30T23:32:04.460Z,23.10
2017-11-30T23:34:30.596Z,22.47
2017-11-30T23:36:56.714Z,26.60
2017-11-30T23:39:22.840Z,22.30
2017-11-30T23:41:48.988Z,23.60
2017-11-30T23:44:15.155Z,23.00
2017-11-30T23:46:41.252Z,25.27
2017-11-30T23:49:07.373Z,25.97
2017-11-30T23:51:33.553Z,24.90
2017-11-30T23:53:59.680Z,24.67
2017-11-30T23:56:25.775Z,26.10
2017-11-30T23:58:51.911Z,28.80
